Time;durP1;ratioP1;P1;durP2;ratioP2;P2;SDS_P1;SDS_P2;PMS_P1;PMS_P2;Temp;Humidity;BMP_temperature;BMP_pressure;BME280_temperature;BME280_humidity;BME280_pressure;Samples;Min_cycle;Max_cycle;Signal;HPM_P1;HPM_P2
2023/04/02 00:01:42;;;;;;;5.40;4.90;;;6.10;99.90;;;;;;4997853;28;20042;-60
2023/04/02 00:04:29;;;;;;;5.38;4.72;;;6.10;99.90;;;;;;5004819;28;20034;-59
2023/04/02 00:07:32;;;;;;;6.28;5.50;;;6.10;99.90;;;;;;5014317;28;20496;-59
2023/04/02 00:10:45;;;;;;;6.63;5.35;;;6.10;99.90;;;;;;5015147;28;20487;-52
2023/04/02 00:13:34;;;;;;;5.35;4.85;;;6.10;99.90;;;;;;4994498;28;20042;-55
2023/04/02 00:16:23;;;;;;;5.85;5.25;;;6.10;99.90;;;;;;5012591;28;20471;-54
2023/04/02 00:19:17;;;;;;;5.72;5.10;;;6.00;99.90;;;;;;5013578;28;20068;-52
2023/04/02 00:22:06;;;;;;;6.68;5.75;;;6.00;99.90;;;;;;5013512;28;20383;-54
2023/04/02 00:24:54;;;;;;;6.05;5.45;;;6.00;99.90;;;;;;4995966;28;20113;-53
2023/04/02 00:27:41;;;;;;;6.70;5.60;;;6.00;99.90;;;;;;5008159;28;20032;-56
2023/04/02 00:30:28;;;;;;;7.50;5.60;;;6.10;99.90;;;;;;5017591;28;20034;-54
2023/04/02 00:33:32;;;;;;;6.97;6.28;;;6.20;99.90;;;;;;5013357;28;20076;-56
2023/04/02 00:36:20;;;;;;;7.85;6.47;;;6.20;99.90;;;;;;5013044;28;20380;-56
2023/04/02 00:39:17;;;;;;;6.57;5.95;;;6.10;99.90;;;;;;4997833;28;20026;-53
2023/04/02 00:42:03;;;;;;;8.75;7.15;;;6.00;99.90;;;;;;5013957;28;20038;-54
2023/04/02 00:44:50;;;;;;;9.93;7.07;;;6.00;99.90;;;;;;5013426;28;20060;-55
2023/04/02 00:47:37;;;;;;;8.52;7.35;;;6.00;99.90;;;;;;5012523;28;20394;-53
2023/04/02 00:50:34;;;;;;;10.88;7.80;;;5.90;99.90;;;;;;5012047;28;20105;-56
2023/04/02 00:53:30;;;;;;;9.27;7.20;;;5.90;99.90;;;;;;4999580;28;20430;-60
2023/04/02 00:56:25;;;;;;;10.48;7.85;;;5.90;99.90;;;;;;5012146;28;20022;-58
2023/04/02 00:59:30;;;;;;;9.25;7.95;;;5.70;99.90;;;;;;5013494;28;20018;-52
2023/04/02 01:02:17;;;;;;;8.88;7.97;;;5.60;99.90;;;;;;4998740;28;20053;-57
2023/04/02 01:05:15;;;;;;;9.73;8.73;;;5.60;99.90;;;;;;5012700;28;20092;-55
2023/04/02 01:08:19;;;;;;;9.55;8.55;;;5.70;99.90;;;;;;5012221;28;20482;-52
2023/04/02 01:11:14;;;;;;;9.13;7.43;;;5.70;99.90;;;;;;5010940;28;20489;-53
2023/04/02 01:14:27;;;;;;;8.73;7.82;;;5.60;99.90;;;;;;5012166;28;20077;-56
2023/04/02 01:17:37;;;;;;;8.98;8.02;;;5.50;99.90;;;;;;5011715;28;20052;-54
2023/04/02 01:20:57;;;;;;;9.05;8.07;;;5.40;99.90;;;;;;5010327;28;20033;-57
2023/04/02 01:24:04;;;;;;;9.18;7.90;;;5.40;99.90;;;;;;5012936;28;20018;-55
2023/04/02 01:27:15;;;;;;;10.05;7.68;;;5.40;99.90;;;;;;5011983;28;20375;-52
2023/04/02 01:30:04;;;;;;;12.27;10.93;;;5.40;99.90;;;;;;5012895;28;20022;-53
2023/04/02 01:32:51;;;;;;;13.73;11.13;;;5.30;99.90;;;;;;5011637;28;20025;-54
2023/04/02 01:35:44;;;;;;;14.38;11.40;;;5.30;99.90;;;;;;5011141;28;20022;-51
2023/04/02 01:38:40;;;;;;;15.25;11.18;;;5.20;99.90;;;;;;5002706;28;20611;-53
2023/04/02 01:41:35;;;;;;;14.20;10.43;;;5.20;99.90;;;;;;5010659;28;20157;-50
2023/04/02 01:44:29;;;;;;;13.77;11.27;;;5.30;99.90;;;;;;5012262;28;20399;-51
2023/04/02 01:47:18;;;;;;;12.65;10.20;;;5.40;99.90;;;;;;5010534;28;20076;-49
2023/04/02 01:50:30;;;;;;;12.35;10.20;;;5.30;99.90;;;;;;5009043;28;20022;-53
2023/04/02 01:53:18;;;;;;;15.35;9.75;;;5.20;99.90;;;;;;5010145;28;20026;-48
2023/04/02 01:56:06;;;;;;;14.18;9.63;;;5.30;99.90;;;;;;5018745;28;20517;-56
2023/04/02 01:58:52;;;;;;;11.75;8.88;;;5.30;99.90;;;;;;4993206;28;20042;-52
2023/04/02 02:01:51;;;;;;;12.77;9.77;;;5.30;99.90;;;;;;4992733;28;20034;-51
2023/04/02 02:04:38;;;;;;;11.80;9.77;;;5.20;99.90;;;;;;5000768;28;20105;-48
2023/04/02 02:07:24;;;;;;;12.45;9.07;;;5.10;99.90;;;;;;5010968;28;20061;-48
2023/04/02 02:10:17;;;;;;;10.45;8.98;;;5.10;99.90;;;;;;4998240;28;20553;-48
2023/04/02 02:13:03;;;;;;;11.25;8.90;;;5.10;99.90;;;;;;5012819;28;20169;-47
2023/04/02 02:15:49;;;;;;;11.23;9.27;;;5.00;99.90;;;;;;5012164;28;20022;-49
2023/04/02 02:18:36;;;;;;;13.60;9.20;;;5.10;99.90;;;;;;5011682;28;20018;-49
2023/04/02 02:21:25;;;;;;;10.45;8.88;;;5.10;99.90;;;;;;5011162;28;20518;-49
2023/04/02 02:24:27;;;;;;;14.75;11.02;;;5.10;99.90;;;;;;5068478;28;20968;-53
2023/04/02 02:27:22;;;;;;;13.85;11.15;;;5.00;99.90;;;;;;5052193;28;20072;-51
2023/04/02 02:30:27;;;;;;;12.73;11.43;;;5.30;99.90;;;;;;5049320;28;20116;-54
2023/04/02 02:33:21;;;;;;;15.60;10.80;;;5.30;99.90;;;;;;5048921;28;20099;-52
2023/04/02 02:36:32;;;;;;;13.23;9.77;;;5.20;99.90;;;;;;5048229;28;20527;-55
2023/04/02 02:39:37;;;;;;;11.32;9.32;;;5.10;99.90;;;;;;5028805;28;20030;-53
2023/04/02 02:42:32;;;;;;;14.70;9.70;;;5.00;99.90;;;;;;5064823;28;20400;-57
2023/04/02 02:45:24;;;;;;;13.50;10.65;;;5.00;99.90;;;;;;5087588;28;20028;-53
2023/04/02 02:48:16;;;;;;;14.02;11.57;;;5.00;99.90;;;;;;5086360;28;20072;-52
2023/04/02 02:51:08;;;;;;;12.75;9.82;;;5.10;99.90;;;;;;5083505;28;20061;-54
2023/04/02 02:54:00;;;;;;;13.40;10.95;;;4.90;99.90;;;;;;5084810;28;20444;-50
2023/04/02 02:56:53;;;;;;;16.02;10.50;;;4.80;99.90;;;;;;5071781;28;20550;-49
2023/04/02 02:59:41;;;;;;;15.27;10.63;;;4.70;99.90;;;;;;5076818;28;20108;-56
2023/04/02 03:02:27;;;;;;;13.77;10.77;;;4.70;99.90;;;;;;5067356;28;20033;-53
2023/04/02 03:05:20;;;;;;;12.18;9.50;;;4.70;99.90;;;;;;5068560;28;20100;-53
2023/04/02 03:08:12;;;;;;;14.15;10.63;;;4.70;99.90;;;;;;5069327;28;20029;-54
2023/04/02 03:11:08;;;;;;;14.52;9.77;;;4.60;99.90;;;;;;5088333;28;20081;-56
2023/04/02 03:14:02;;;;;;;13.95;10.73;;;4.70;99.90;;;;;;5080255;28;20021;-52
2023/04/02 03:16:52;;;;;;;12.80;10.18;;;4.70;99.90;;;;;;5067497;28;20033;-56
2023/04/02 03:19:44;;;;;;;12.80;11.35;;;4.70;99.90;;;;;;5067616;28;20032;-55
2023/04/02 03:22:36;;;;;;;17.95;11.27;;;4.70;99.90;;;;;;5077768;28;20029;-55
2023/04/02 03:25:41;;;;;;;11.57;10.32;;;4.70;99.90;;;;;;5076151;28;20021;-54
2023/04/02 03:28:31;;;;;;;13.48;9.80;;;4.70;99.90;;;;;;5057804;28;20016;-52
2023/04/02 03:31:33;;;;;;;12.63;10.20;;;4.70;99.90;;;;;;5074451;28;20390;-54
2023/04/02 03:34:45;;;;;;;14.45;10.80;;;4.60;99.90;;;;;;5079777;28;20112;-51
2023/04/02 03:37:41;;;;;;;13.98;10.20;;;4.60;99.90;;;;;;5035143;28;20064;-53
2023/04/02 03:40:37;;;;;;;13.10;9.93;;;4.60;99.90;;;;;;5050440;28;20029;-53
2023/04/02 03:43:28;;;;;;;14.13;10.18;;;4.60;99.90;;;;;;5074575;28;20032;-49
2023/04/02 03:46:43;;;;;;;13.50;9.90;;;4.60;99.90;;;;;;5058557;28;20059;-55
2023/04/02 03:49:58;;;;;;;12.35;9.82;;;4.60;99.90;;;;;;5053839;28;20167;-51
2023/04/02 03:52:45;;;;;;;12.68;9.85;;;4.60;99.90;;;;;;5073482;28;20025;-51
2023/04/02 03:55:35;;;;;;;14.52;10.13;;;4.70;99.90;;;;;;5068878;28;20033;-53
2023/04/02 03:58:35;;;;;;;15.85;9.50;;;4.70;99.90;;;;;;5074855;28;20033;-50
2023/04/02 04:01:33;;;;;;;13.93;9.77;;;4.50;99.90;;;;;;5057518;28;20033;-50
2023/04/02 04:04:21;;;;;;;12.25;9.68;;;4.50;99.90;;;;;;5054159;28;20044;-50
2023/04/02 04:07:18;;;;;;;12.50;9.88;;;4.60;99.90;;;;;;5039250;28;20017;-53
2023/04/02 04:10:07;;;;;;;15.88;11.07;;;4.60;99.90;;;;;;5054516;28;20025;-54
2023/04/02 04:12:56;;;;;;;13.07;9.40;;;4.50;99.90;;;;;;5061446;28;20028;-51
2023/04/02 04:15:53;;;;;;;15.95;10.30;;;4.40;99.90;;;;;;5072750;28;20043;-50
2023/04/02 04:19:02;;;;;;;13.55;9.68;;;4.40;99.90;;;;;;5072281;28;20033;-52
2023/04/02 04:21:52;;;;;;;11.70;9.05;;;4.50;99.90;;;;;;5053933;28;20040;-50
2023/04/02 04:24:38;;;;;;;10.77;8.40;;;4.40;99.90;;;;;;5034503;28;20513;-50
2023/04/02 04:27:47;;;;;;;12.07;8.43;;;4.40;99.90;;;;;;5039085;28;20028;-53
2023/04/02 04:30:49;;;;;;;12.13;8.98;;;4.50;99.90;;;;;;5073835;28;20039;-53
2023/04/02 04:33:42;;;;;;;15.95;9.20;;;4.50;99.90;;;;;;5032828;28;20034;-52
2023/04/02 04:36:34;;;;;;;13.90;10.82;;;4.40;99.90;;;;;;5057660;28;20508;-54
2023/04/02 04:39:44;;;;;;;15.52;10.73;;;4.30;99.90;;;;;;5071820;28;20035;-53
2023/04/02 04:42:34;;;;;;;15.95;12.07;;;4.30;99.90;;;;;;5032883;28;20026;-53
2023/04/02 04:45:41;;;;;;;16.10;12.23;;;4.40;99.90;;;;;;5041875;28;20025;-54
2023/04/02 04:48:37;;;;;;;15.23;12.20;;;4.40;99.90;;;;;;5052060;28;20420;-52
2023/04/02 04:51:32;;;;;;;17.17;11.98;;;4.40;99.90;;;;;;5056698;28;20061;-49
2023/04/02 04:54:19;;;;;;;18.45;12.77;;;4.40;99.90;;;;;;5053784;28;20021;-53
2023/04/02 04:57:17;;;;;;;14.48;11.30;;;4.40;99.90;;;;;;5052345;28;20112;-55
2023/04/02 05:00:12;;;;;;;13.90;11.85;;;4.30;99.90;;;;;;5053632;28;20028;-56
2023/04/02 05:03:29;;;;;;;13.75;9.77;;;4.30;99.90;;;;;;5051031;28;20108;-58
2023/04/02 05:06:43;;;;;;;13.88;11.05;;;4.30;99.90;;;;;;5071810;28;20467;-57
2023/04/02 05:09:33;;;;;;;14.25;11.13;;;4.30;99.90;;;;;;5070900;28;20070;-59
2023/04/02 05:12:36;;;;;;;14.85;9.63;;;4.30;99.90;;;;;;5068739;28;20056;-57
2023/04/02 05:15:41;;;;;;;13.07;10.50;;;4.20;99.90;;;;;;5058485;28;20055;-56
2023/04/02 05:18:38;;;;;;;12.93;9.40;;;4.30;99.90;;;;;;5042793;28;20110;-58
2023/04/02 05:21:39;;;;;;;14.35;8.93;;;4.20;99.90;;;;;;5072042;28;20462;-49
2023/04/02 05:25:03;;;;;;;12.85;8.90;;;4.10;99.90;;;;;;5040570;28;20032;-49
2023/04/02 05:27:58;;;;;;;11.85;8.23;;;4.10;99.90;;;;;;5055717;28;20025;-53
2023/04/02 05:31:00;;;;;;;11.52;8.15;;;4.20;99.90;;;;;;5053953;28;20421;-54
2023/04/02 05:33:48;;;;;;;12.50;8.73;;;4.30;99.90;;;;;;5064497;28;20055;-56
2023/04/02 05:36:34;;;;;;;12.68;7.80;;;4.30;99.90;;;;;;5056880;28;20028;-56
2023/04/02 05:39:25;;;;;;;11.48;7.03;;;4.20;99.90;;;;;;5054152;28;20029;-53
2023/04/02 05:42:23;;;;;;;10.98;6.90;;;4.20;99.90;;;;;;5036979;28;20405;-51
2023/04/02 05:45:19;;;;;;;8.93;6.88;;;4.20;99.90;;;;;;5054110;28;20100;-49
2023/04/02 05:48:19;;;;;;;9.63;6.65;;;4.20;99.90;;;;;;5070032;28;20021;-52
2023/04/02 05:51:14;;;;;;;9.10;6.72;;;4.20;99.90;;;;;;5058418;28;20029;-49
2023/04/02 05:54:03;;;;;;;9.00;6.03;;;4.10;99.90;;;;;;5019997;28;20029;-52
2023/04/02 05:56:59;;;;;;;8.75;5.88;;;4.20;99.90;;;;;;5037493;28;20565;-54
2023/04/02 06:00:04;;;;;;;8.35;6.22;;;4.20;99.90;;;;;;5052432;28;20025;-53
2023/04/02 06:03:01;;;;;;;10.52;6.70;;;4.10;99.90;;;;;;5060149;28;20115;-51
2023/04/02 06:08:37;;;;;;;8.98;6.32;;;4.00;99.90;;;;;;5136646;22;20062;-57
2023/04/02 06:11:31;;;;;;;10.55;6.57;;;4.00;99.90;;;;;;4996269;28;20030;-56
2023/04/02 06:14:17;;;;;;;7.10;6.07;;;3.90;99.90;;;;;;5011414;28;20033;-57
2023/04/02 06:17:04;;;;;;;8.43;6.47;;;3.90;99.90;;;;;;5008899;28;20041;-54
2023/04/02 06:19:52;;;;;;;11.02;6.22;;;3.90;99.90;;;;;;4997879;28;20041;-59
2023/04/02 06:22:42;;;;;;;8.27;6.40;;;3.80;99.90;;;;;;5015815;28;20064;-56
2023/04/02 06:25:38;;;;;;;9.10;6.10;;;3.90;99.90;;;;;;5030472;28;20021;-57
2023/04/02 06:28:30;;;;;;;9.60;6.95;;;4.00;99.90;;;;;;5030776;28;20053;-57
2023/04/02 06:31:52;;;;;;;8.85;5.85;;;4.00;99.90;;;;;;5030554;28;20506;-58
2023/04/02 06:34:40;;;;;;;9.63;6.72;;;4.00;99.90;;;;;;5029988;28;20041;-59
2023/04/02 06:37:36;;;;;;;8.60;5.60;;;3.90;99.90;;;;;;5030059;28;20057;-59
2023/04/02 06:40:43;;;;;;;9.38;6.25;;;3.90;99.90;;;;;;5030710;28;20029;-58
2023/04/02 06:43:52;;;;;;;7.72;6.30;;;3.90;99.90;;;;;;5014708;28;20640;-59
2023/04/02 06:46:52;;;;;;;9.23;5.53;;;4.00;99.90;;;;;;5029758;28;20042;-59
2023/04/02 06:49:45;;;;;;;8.25;5.68;;;4.00;99.90;;;;;;5030853;28;20383;-52
2023/04/02 06:52:48;;;;;;;6.75;5.45;;;4.00;99.90;;;;;;5030308;28;20032;-53
2023/04/02 06:55:51;;;;;;;8.10;5.43;;;4.00;99.90;;;;;;5030598;28;20533;-59
2023/04/02 06:58:37;;;;;;;11.38;5.82;;;4.00;99.90;;;;;;5029695;28;20065;-50
2023/04/02 07:01:27;;;;;;;7.97;5.50;;;3.90;99.90;;;;;;5030203;28;20553;-52
2023/04/02 07:04:14;;;;;;;5.63;5.00;;;3.80;99.90;;;;;;5028613;28;20030;-50
2023/04/02 07:07:00;;;;;;;7.30;5.55;;;3.90;99.90;;;;;;5030004;28;20022;-51
2023/04/02 07:09:46;;;;;;;7.15;5.10;;;3.90;99.90;;;;;;5031550;28;20029;-52
2023/04/02 07:12:32;;;;;;;7.03;5.55;;;3.90;99.90;;;;;;5036321;28;20453;-53
2023/04/02 07:15:18;;;;;;;5.95;4.53;;;3.90;99.90;;;;;;5033771;28;20391;-49
2023/04/02 07:18:05;;;;;;;7.82;5.10;;;3.90;99.90;;;;;;5033940;28;20037;-51
2023/04/02 07:20:51;;;;;;;8.27;5.13;;;4.00;99.90;;;;;;5034209;28;20040;-54
2023/04/02 07:23:37;;;;;;;5.97;4.85;;;4.00;99.90;;;;;;5033984;28;20037;-55
2023/04/02 07:26:26;;;;;;;6.88;5.07;;;4.00;99.90;;;;;;5031925;28;20025;-53
2023/04/02 07:29:14;;;;;;;9.00;5.35;;;4.00;99.90;;;;;;5033520;28;20033;-52
2023/04/02 07:32:00;;;;;;;9.80;5.10;;;4.00;99.90;;;;;;5032509;28;20036;-54
2023/04/02 07:34:46;;;;;;;5.88;4.53;;;4.00;99.90;;;;;;5024416;28;20108;-49
2023/04/02 07:37:32;;;;;;;6.95;4.50;;;4.00;99.90;;;;;;5031934;28;20099;-52
2023/04/02 07:40:21;;;;;;;8.27;5.20;;;3.90;99.90;;;;;;5017683;28;20060;-53
2023/04/02 07:43:07;;;;;;;7.63;5.55;;;4.00;99.90;;;;;;5045623;28;20033;-52
2023/04/02 07:45:53;;;;;;;9.40;5.57;;;4.00;99.90;;;;;;5074290;23;20233;-58
2023/04/02 07:48:39;;;;;;;7.90;4.53;;;4.00;99.90;;;;;;4983725;28;20038;-49
2023/04/02 07:51:26;;;;;;;9.90;4.65;;;4.10;99.90;;;;;;4976655;28;20047;-51
2023/04/02 07:54:12;;;;;;;7.15;4.57;;;4.00;99.90;;;;;;4975142;28;20034;-51
2023/04/02 07:56:58;;;;;;;6.00;4.70;;;4.00;99.90;;;;;;4983332;28;20060;-50
2023/04/02 07:59:45;;;;;;;6.10;4.70;;;4.10;99.90;;;;;;4977040;28;20404;-53
2023/04/02 08:02:31;;;;;;;6.97;5.25;;;4.20;99.90;;;;;;4975781;28;20031;-50
2023/04/02 08:05:17;;;;;;;5.75;4.07;;;4.10;99.90;;;;;;4961944;28;20051;-48
2023/04/02 08:08:03;;;;;;;10.30;5.20;;;4.20;99.90;;;;;;4979756;28;20018;-55
2023/04/02 08:10:49;;;;;;;8.40;5.18;;;4.10;99.90;;;;;;4988176;28;20031;-51
2023/04/02 08:13:36;;;;;;;5.85;4.80;;;4.40;99.90;;;;;;4956364;28;20027;-51
2023/04/02 08:16:24;;;;;;;7.55;4.57;;;4.50;99.90;;;;;;4959267;28;20027;-46
2023/04/02 08:19:09;;;;;;;5.57;4.55;;;4.60;99.90;;;;;;4974858;28;20038;-47
2023/04/02 08:21:56;;;;;;;8.82;5.45;;;4.80;99.90;;;;;;4974761;28;20450;-46
2023/04/02 08:24:41;;;;;;;5.65;4.82;;;4.90;99.90;;;;;;4976083;28;20053;-51
2023/04/02 08:27:27;;;;;;;10.07;5.80;;;5.00;99.90;;;;;;4974415;28;20026;-48
2023/04/02 08:30:14;;;;;;;9.50;5.10;;;5.30;99.90;;;;;;4975393;28;20038;-52
2023/04/02 08:33:00;;;;;;;7.22;4.78;;;5.30;99.90;;;;;;4956374;28;20444;-47
2023/04/02 08:35:47;;;;;;;5.38;4.13;;;5.40;99.90;;;;;;4970959;28;20026;-49
2023/04/02 08:38:33;;;;;;;7.97;4.60;;;5.20;99.90;;;;;;4975358;28;20042;-54
2023/04/02 08:41:26;;;;;;;6.03;4.30;;;5.20;99.90;;;;;;4961353;28;20045;-50
2023/04/02 08:44:19;;;;;;;12.30;4.30;;;5.30;99.90;;;;;;4974011;28;20034;-48
2023/04/02 08:47:08;;;;;;;5.15;3.95;;;5.40;99.90;;;;;;4974001;28;20031;-51
2023/04/02 08:50:14;;;;;;;6.30;4.32;;;5.60;99.90;;;;;;4959253;28;20105;-51
2023/04/02 08:53:22;;;;;;;9.30;4.78;;;5.50;99.90;;;;;;4976165;28;20458;-54
2023/04/02 08:56:34;;;;;;;5.95;4.05;;;5.40;99.90;;;;;;4974845;28;20553;-55
2023/04/02 08:59:32;;;;;;;6.03;4.05;;;5.30;99.90;;;;;;4974430;28;20122;-50
2023/04/02 09:02:39;;;;;;;5.80;4.03;;;5.50;99.90;;;;;;4974647;28;20559;-52
2023/04/02 09:05:39;;;;;;;5.38;3.78;;;5.80;99.90;;;;;;4968075;28;20062;-51
2023/04/02 09:08:26;;;;;;;6.55;4.13;;;5.80;99.90;;;;;;4973753;28;20034;-48
2023/04/02 09:11:22;;;;;;;5.35;3.95;;;5.80;99.90;;;;;;4975436;28;20456;-53
2023/04/02 09:14:25;;;;;;;5.10;4.00;;;5.80;99.90;;;;;;4940548;29;20023;-50
2023/04/02 09:17:20;;;;;;;5.97;3.40;;;5.70;99.90;;;;;;4971877;28;20027;-49
2023/04/02 09:20:15;;;;;;;;;;;6.00;99.90;;;;;;4974299;28;20038;-51
2023/04/02 09:23:01;;;;;;;6.35;4.10;;;6.10;99.90;;;;;;4974101;28;19977;-52
2023/04/02 09:25:51;;;;;;;10.60;4.50;;;6.40;99.90;;;;;;4970662;28;20066;-56
2023/04/02 09:28:37;;;;;;;5.63;3.70;;;6.10;99.90;;;;;;4972662;28;20107;-57
2023/04/02 09:31:36;;;;;;;6.20;4.20;;;6.00;99.90;;;;;;4973953;28;20027;-58
2023/04/02 09:34:31;;;;;;;6.85;4.72;;;6.10;99.90;;;;;;4974456;28;20402;-56
2023/04/02 09:37:21;;;;;;;7.95;5.88;;;6.00;99.90;;;;;;4973544;28;20026;-55
2023/04/02 09:40:23;;;;;;;8.13;4.90;;;5.90;99.90;;;;;;4974496;28;20507;-54
2023/04/02 09:43:18;;;;;;;6.50;5.00;;;5.90;99.90;;;;;;4976077;28;20071;-58
2023/04/02 09:46:17;;;;;;;8.90;6.40;;;5.80;99.90;;;;;;4971391;28;20480;-56
2023/04/02 09:49:03;;;;;;;5.72;5.10;;;5.80;99.90;;;;;;4977064;28;20031;-53
2023/04/02 09:52:28;;;;;;;7.40;5.05;;;5.60;99.90;;;;;;4974528;28;20027;-55
2023/04/02 09:55:14;;;;;;;11.38;5.60;;;5.60;99.90;;;;;;4971232;28;20023;-60
2023/04/02 09:58:16;;;;;;;8.90;5.65;;;5.70;99.90;;;;;;4977090;28;20042;-52
2023/04/02 10:01:02;;;;;;;9.05;5.38;;;5.60;99.90;;;;;;4974800;28;20038;-55
2023/04/02 10:03:48;;;;;;;6.57;5.00;;;6.00;99.90;;;;;;4970848;28;20042;-56
2023/04/02 10:06:35;;;;;;;19.75;6.07;;;6.30;99.90;;;;;;4954153;28;20039;-55
2023/04/02 10:09:31;;;;;;;7.68;4.60;;;6.40;99.90;;;;;;4973894;28;20045;-53
2023/04/02 10:12:17;;;;;;;6.70;4.65;;;6.50;99.90;;;;;;4974302;28;20094;-52
2023/04/02 10:15:06;;;;;;;9.38;4.40;;;6.60;99.90;;;;;;4973971;28;20059;-57
2023/04/02 10:18:16;;;;;;;7.35;4.63;;;6.60;99.90;;;;;;4972720;28;20455;-55
2023/04/02 10:21:04;;;;;;;7.97;4.20;;;6.60;99.90;;;;;;4966529;28;20023;-53
2023/04/02 10:23:50;;;;;;;7.10;4.97;;;6.50;99.90;;;;;;4973457;28;20043;-55
2023/04/02 10:27:01;;;;;;;6.60;4.15;;;6.40;99.90;;;;;;4973758;28;20031;-56
2023/04/02 10:30:10;;;;;;;11.80;5.18;;;6.00;99.90;;;;;;4969501;28;20027;-55
2023/04/02 10:33:04;;;;;;;9.40;5.80;;;5.80;99.90;;;;;;4979379;28;20035;-59
2023/04/02 10:36:07;;;;;;;7.28;4.82;;;5.80;99.90;;;;;;4990735;28;20030;-58
2023/04/02 10:39:07;;;;;;;6.03;4.53;;;5.70;99.90;;;;;;4976088;28;20102;-57
2023/04/02 10:42:22;;;;;;;7.30;5.22;;;5.70;99.90;;;;;;4970208;28;20069;-57
2023/04/02 10:45:36;;;;;;;10.10;5.65;;;5.60;99.90;;;;;;4973102;28;20520;-54
2023/04/02 10:48:33;;;;;;;6.88;4.63;;;5.50;99.90;;;;;;4976634;28;20038;-57
2023/04/02 10:51:47;;;;;;;8.23;5.43;;;5.60;99.90;;;;;;4974496;28;21615;-58
2023/04/02 10:54:50;;;;;;;7.03;5.47;;;5.70;99.90;;;;;;4975918;28;20102;-57
2023/04/02 10:57:39;;;;;;;7.05;4.97;;;5.80;99.90;;;;;;4962235;28;20387;-59
2023/04/02 11:00:33;;;;;;;7.97;5.10;;;5.80;99.90;;;;;;4974001;28;20562;-58
2023/04/02 11:03:33;;;;;;;6.60;4.45;;;5.90;99.90;;;;;;4961483;28;20054;-56
2023/04/02 11:06:27;;;;;;;6.07;4.30;;;6.00;99.90;;;;;;4976436;28;20023;-52
2023/04/02 11:09:20;;;;;;;6.07;4.90;;;6.00;99.90;;;;;;4959781;28;20027;-55
2023/04/02 11:12:14;;;;;;;5.05;4.07;;;6.10;99.90;;;;;;4978550;28;20019;-58
2023/04/02 11:15:01;;;;;;;6.22;4.43;;;6.20;99.90;;;;;;4963104;28;20110;-58
2023/04/02 11:17:47;;;;;;;7.68;5.10;;;6.20;99.90;;;;;;4961665;28;20622;-56
2023/04/02 11:21:23;;;;;;;6.97;4.93;;;6.10;99.90;;;;;;4972063;28;20042;-58
2023/04/02 11:24:35;;;;;;;13.18;5.20;;;6.10;99.90;;;;;;4941169;28;20035;-49
2023/04/02 11:27:32;;;;;;;7.53;5.63;;;6.00;99.90;;;;;;4975649;28;20033;-45
2023/04/02 11:30:24;;;;;;;10.70;6.78;;;6.00;99.90;;;;;;4973394;28;20051;-53
2023/04/02 11:33:25;;;;;;;8.75;5.15;;;5.90;99.90;;;;;;4946653;28;20038;-51
2023/04/02 11:36:48;;;;;;;8.35;5.45;;;5.90;99.90;;;;;;4974009;28;20035;-50
2023/04/02 11:39:45;;;;;;;8.43;5.32;;;6.10;99.90;;;;;;4975452;28;20023;-54
2023/04/02 11:42:35;;;;;;;5.75;4.78;;;6.30;99.90;;;;;;4968863;28;20459;-51
2023/04/02 11:45:22;;;;;;;6.63;4.28;;;6.60;99.90;;;;;;4975929;28;20035;-54
2023/04/02 11:48:22;;;;;;;6.97;4.85;;;6.60;99.90;;;;;;4961014;28;20030;-52
2023/04/02 11:51:23;;;;;;;5.95;4.93;;;6.70;99.90;;;;;;4975721;28;20034;-50
2023/04/02 11:54:26;;;;;;;5.40;4.30;;;6.60;99.90;;;;;;4960544;28;20022;-56
2023/04/02 11:57:48;;;;;;;7.20;4.43;;;6.50;99.90;;;;;;4972533;28;20377;-53
2023/04/02 12:00:56;;;;;;;5.78;4.43;;;6.30;99.90;;;;;;4946204;28;20031;-51
2023/04/02 12:03:55;;;;;;;7.53;4.20;;;6.40;99.90;;;;;;4974404;28;20062;-49
2023/04/02 12:06:50;;;;;;;6.45;4.45;;;6.40;99.90;;;;;;4978135;28;20128;-52
2023/04/02 12:09:43;;;;;;;5.97;4.90;;;6.40;99.90;;;;;;4989678;28;20023;-48
2023/04/02 12:12:38;;;;;;;6.15;4.90;;;6.70;99.90;;;;;;4973907;28;20063;-52
2023/04/02 12:15:46;;;;;;;6.00;4.35;;;7.20;99.90;;;;;;4957407;28;20030;-50
2023/04/02 12:18:33;;;;;;;5.72;3.55;;;7.30;99.90;;;;;;4972891;28;20035;-55
2023/04/02 12:21:22;;;;;;;6.28;4.05;;;6.80;99.90;;;;;;4959947;28;20078;-55
2023/04/02 12:24:18;;;;;;;5.82;4.13;;;6.70;99.90;;;;;;4971320;28;20177;-54
2023/04/02 12:27:21;;;;;;;5.10;3.50;;;6.50;99.90;;;;;;4974861;28;20022;-54
2023/04/02 12:30:13;;;;;;;5.22;3.78;;;6.50;99.90;;;;;;4959503;28;20054;-53
2023/04/02 12:33:36;;;;;;;7.68;5.13;;;6.50;99.90;;;;;;4957312;28;20539;-50
2023/04/02 12:36:22;;;;;;;7.03;3.50;;;6.70;99.70;;;;;;4974458;28;20035;-53
2023/04/02 12:39:16;;;;;;;7.10;4.03;;;6.80;99.30;;;;;;4947894;28;20038;-51
2023/04/02 12:42:01;;;;;;;9.65;4.32;;;7.00;99.30;;;;;;4974389;28;20038;-46
2023/04/02 12:44:48;;;;;;;4.78;3.30;;;7.10;98.70;;;;;;4972037;28;20031;-50
2023/04/02 12:47:35;;;;;;;6.05;3.47;;;7.10;98.10;;;;;;4973622;28;20031;-55
2023/04/02 12:50:22;;;;;;;7.00;3.90;;;7.10;98.30;;;;;;4971648;28;20035;-50
2023/04/02 12:53:28;;;;;;;4.75;3.20;;;6.90;98.20;;;;;;4958293;28;20113;-51
2023/04/02 12:56:22;;;;;;;9.57;4.03;;;6.80;98.50;;;;;;4973070;28;20435;-48
2023/04/02 12:59:30;;;;;;;5.95;3.17;;;6.90;98.40;;;;;;4983624;28;20034;-49
2023/04/02 13:02:22;;;;;;;6.82;4.28;;;7.00;98.90;;;;;;4990284;28;20034;-50
2023/04/02 13:05:08;;;;;;;7.80;5.53;;;7.10;99.10;;;;;;4978258;28;20037;-46
2023/04/02 13:07:54;;;;;;;8.80;4.32;;;7.40;99.90;;;;;;4983169;28;20027;-47
2023/04/02 13:10:41;;;;;;;9.77;4.07;;;7.80;99.20;;;;;;4981053;28;20212;-48
2023/04/02 13:13:47;;;;;;;5.65;3.58;;;8.20;98.90;;;;;;4971774;28;20022;-54
2023/04/02 13:16:35;;;;;;;;;;;8.20;97.00;;;;;;4972693;28;20066;-52
2023/04/02 13:19:24;;;;;;;6.10;3.50;;;8.00;96.70;;;;;;4974773;28;19949;-49
2023/04/02 13:22:30;;;;;;;5.47;3.85;;;8.00;97.50;;;;;;4970883;28;20031;-50
2023/04/02 13:25:16;;;;;;;4.85;3.47;;;8.10;98.40;;;;;;4957865;28;20054;-49
2023/04/02 13:28:02;;;;;;;4.63;3.50;;;8.10;98.50;;;;;;4955281;28;20035;-49
2023/04/02 13:30:48;;;;;;;6.63;3.08;;;8.00;97.00;;;;;;4967198;28;20026;-48
2023/04/02 13:33:34;;;;;;;5.97;3.60;;;7.70;96.00;;;;;;4970964;28;20050;-50
2023/04/02 13:36:20;;;;;;;7.63;4.28;;;7.70;96.00;;;;;;4956013;28;20109;-51
2023/04/02 13:39:06;;;;;;;4.88;3.42;;;7.60;96.50;;;;;;4970221;28;20575;-51
2023/04/02 13:41:56;;;;;;;5.72;3.20;;;7.80;97.00;;;;;;4973452;28;20109;-54
2023/04/02 13:44:42;;;;;;;5.07;2.70;;;7.70;96.70;;;;;;4972897;28;20487;-50
2023/04/02 13:47:28;;;;;;;6.57;2.88;;;8.00;96.30;;;;;;4970505;28;20039;-52
2023/04/02 13:50:21;;;;;;;5.70;2.83;;;8.30;95.80;;;;;;4969677;28;20086;-47
2023/04/02 13:53:12;;;;;;;5.38;3.20;;;8.40;94.70;;;;;;4975106;28;20042;-49
2023/04/02 13:55:58;;;;;;;4.03;2.90;;;8.40;94.50;;;;;;4971101;28;20034;-53
2023/04/02 13:58:45;;;;;;;7.85;3.67;;;8.50;94.50;;;;;;4974505;28;20526;-55
2023/04/02 14:01:31;;;;;;;5.35;3.20;;;8.60;94.20;;;;;;4970762;28;20403;-50
2023/04/02 14:04:26;;;;;;;4.95;3.10;;;8.40;94.10;;;;;;4972579;28;20110;-51
2023/04/02 14:07:25;;;;;;;5.83;3.50;;;8.30;94.50;;;;;;4971116;28;20050;-50
2023/04/02 14:10:33;;;;;;;3.72;3.20;;;8.10;94.90;;;;;;4973620;28;20031;-56
2023/04/02 14:13:46;;;;;;;4.65;3.10;;;8.00;95.50;;;;;;4971660;28;20035;-55
2023/04/02 14:16:53;;;;;;;4.18;2.90;;;7.90;96.00;;;;;;4972276;28;20027;-54
2023/04/02 14:20:18;;;;;;;8.15;4.07;;;7.90;95.90;;;;;;4974200;28;20023;-53
2023/04/02 14:23:34;;;;;;;8.35;3.25;;;8.10;96.40;;;;;;4959870;28;20031;-50
2023/04/02 14:26:23;;;;;;;6.55;3.13;;;8.60;95.80;;;;;;4971919;28;20033;-49
2023/04/02 14:29:15;;;;;;;3.25;2.70;;;9.50;94.60;;;;;;4970656;28;20023;-50
2023/04/02 14:32:27;;;;;;;4.15;2.88;;;10.20;94.50;;;;;;4970986;28;20027;-53
2023/04/02 14:35:21;;;;;;;5.28;3.17;;;10.50;92.70;;;;;;4970490;28;20031;-52
2023/04/02 14:38:25;;;;;;;3.75;2.72;;;9.90;91.40;;;;;;4971535;28;20644;-51
2023/04/02 14:41:25;;;;;;;7.10;4.15;;;9.40;92.20;;;;;;4971028;28;20034;-55
2023/04/02 14:44:12;;;;;;;4.57;3.05;;;9.10;93.10;;;;;;4975285;28;20412;-50
2023/04/02 14:47:17;;;;;;;5.68;3.17;;;9.40;93.30;;;;;;4977625;28;20054;-55
2023/04/02 14:50:19;;;;;;;6.57;3.10;;;9.20;93.10;;;;;;4982606;28;20057;-56
2023/04/02 14:53:17;;;;;;;5.78;2.83;;;9.00;93.30;;;;;;4978519;28;20037;-55
2023/04/02 14:56:07;;;;;;;5.95;3.08;;;8.90;93.70;;;;;;4963968;28;20085;-56
2023/04/02 14:59:29;;;;;;;4.05;2.45;;;8.90;93.70;;;;;;4980525;28;20396;-56
2023/04/02 15:02:21;;;;;;;6.10;3.58;;;9.20;93.00;;;;;;4978526;28;20049;-55
2023/04/02 15:05:19;;;;;;;3.83;2.50;;;9.10;92.90;;;;;;4978399;28;20073;-55
2023/04/02 15:08:33;;;;;;;14.98;3.40;;;9.20;93.10;;;;;;4971942;28;20050;-55
2023/04/02 15:11:24;;;;;;;5.88;3.40;;;9.30;93.00;;;;;;4970577;28;20061;-52
2023/04/02 15:14:24;;;;;;;7.00;3.20;;;9.00;93.20;;;;;;4972634;28;20430;-52
2023/04/02 15:17:11;;;;;;;7.47;2.95;;;8.90;93.60;;;;;;4972005;28;20031;-53
2023/04/02 15:20:13;;;;;;;6.13;3.47;;;8.90;93.60;;;;;;4972411;28;20154;-54
2023/04/02 15:23:50;;;;;;;6.65;2.92;;;8.80;93.80;;;;;;4973318;28;20031;-49